Ellezelles, Belgium
Current Conditions -  °F | °C
As of 2:00 PM on Thursday 18 Dec 2014 (Local Time) from LFQQ Reporting Station
Overcast Overcast  
Wind Chill: 55°   Ceiling: 900
Heat Index: 55°   Visibility: 6mi
Dew Point: 52°   Wind: 24mph
Humidity: 88%   Direction: 250°WSW
Pressure: 29.94"   Gusts: NA
Location:  50.74°N, 3.68°E
Report Text: LFQQ 181300Z 25021KT 9999 OVC009 13/11 Q1014 TEMPO 4000 DZ
Loading
Personal Weather Stations






























Interactive Weather Map New forecast layout! Learn more

10-Day Weather Forecast

Advertisements
Track Severe Weather on mobile